sensor_id;sensor_type;location;lat;lon;timestamp;P1;durP1;ratioP1;P2;durP2;ratioP2
22502;SDS011;11418;48.118;9.992;2022-09-30T00:03:18;7.88;;;3.80;;
22502;SDS011;11418;48.118;9.992;2022-09-30T00:07:19;9.20;;;3.60;;
22502;SDS011;11418;48.118;9.992;2022-09-30T00:11:20;11.38;;;3.60;;
22502;SDS011;11418;48.118;9.992;2022-09-30T00:15:24;19.33;;;4.53;;
22502;SDS011;11418;48.118;9.992;2022-09-30T00:19:25;23.30;;;4.47;;
22502;SDS011;11418;48.118;9.992;2022-09-30T00:23:26;14.15;;;5.78;;
22502;SDS011;11418;48.118;9.992;2022-09-30T00:27:27;19.42;;;6.13;;
22502;SDS011;11418;48.118;9.992;2022-09-30T00:31:29;113.38;;;8.93;;
22502;SDS011;11418;48.118;9.992;2022-09-30T00:35:32;21.33;;;6.20;;
22502;SDS011;11418;48.118;9.992;2022-09-30T00:39:33;57.17;;;7.75;;
22502;SDS011;11418;48.118;9.992;2022-09-30T00:43:43;76.43;;;7.50;;
22502;SDS011;11418;48.118;9.992;2022-09-30T00:47:51;18.48;;;5.82;;
22502;SDS011;11418;48.118;9.992;2022-09-30T00:51:54;42.03;;;6.32;;
22502;SDS011;11418;48.118;9.992;2022-09-30T00:56:01;76.75;;;6.80;;
22502;SDS011;11418;48.118;9.992;2022-09-30T01:00:05;13.38;;;5.28;;
22502;SDS011;11418;48.118;9.992;2022-09-30T01:04:11;89.63;;;5.20;;
22502;SDS011;11418;48.118;9.992;2022-09-30T01:08:15;43.85;;;5.03;;
22502;SDS011;11418;48.118;9.992;2022-09-30T01:12:18;41.15;;;4.38;;
22502;SDS011;11418;48.118;9.992;2022-09-30T01:20:44;67.82;;;4.55;;
22502;SDS011;11418;48.118;9.992;2022-09-30T01:29:42;41.33;;;4.28;;
22502;SDS011;11418;48.118;9.992;2022-09-30T01:34:07;37.92;;;4.28;;
22502;SDS011;11418;48.118;9.992;2022-09-30T01:38:30;96.70;;;5.30;;
22502;SDS011;11418;48.118;9.992;2022-09-30T01:42:55;22.83;;;4.53;;
22502;SDS011;11418;48.118;9.992;2022-09-30T01:47:25;32.85;;;5.05;;
22502;SDS011;11418;48.118;9.992;2022-09-30T01:51:34;115.97;;;7.60;;
22502;SDS011;11418;48.118;9.992;2022-09-30T01:56:01;94.72;;;6.65;;
22502;SDS011;11418;48.118;9.992;2022-09-30T02:00:07;88.68;;;7.32;;
22502;SDS011;11418;48.118;9.992;2022-09-30T02:04:11;94.20;;;6.68;;
22502;SDS011;11418;48.118;9.992;2022-09-30T02:08:24;102.03;;;5.97;;
22502;SDS011;11418;48.118;9.992;2022-09-30T02:12:31;67.80;;;5.38;;
22502;SDS011;11418;48.118;9.992;2022-09-30T02:16:37;54.03;;;5.15;;
22502;SDS011;11418;48.118;9.992;2022-09-30T02:20:40;32.85;;;4.53;;
22502;SDS011;11418;48.118;9.992;2022-09-30T02:24:43;149.40;;;7.40;;
22502;SDS011;11418;48.118;9.992;2022-09-30T02:28:57;119.88;;;5.95;;
22502;SDS011;11418;48.118;9.992;2022-09-30T02:33:05;43.13;;;5.38;;
22502;SDS011;11418;48.118;9.992;2022-09-30T02:37:15;68.95;;;6.30;;
22502;SDS011;11418;48.118;9.992;2022-09-30T02:41:23;50.45;;;5.60;;
22502;SDS011;11418;48.118;9.992;2022-09-30T02:45:25;68.25;;;6.15;;
22502;SDS011;11418;48.118;9.992;2022-09-30T02:49:41;36.88;;;6.18;;
22502;SDS011;11418;48.118;9.992;2022-09-30T02:53:54;27.75;;;6.47;;
22502;SDS011;11418;48.118;9.992;2022-09-30T02:58:15;82.22;;;8.02;;
22502;SDS011;11418;48.118;9.992;2022-09-30T03:02:18;32.47;;;8.10;;
22502;SDS011;11418;48.118;9.992;2022-09-30T03:06:19;38.00;;;8.73;;
22502;SDS011;11418;48.118;9.992;2022-09-30T03:10:20;32.30;;;8.43;;
22502;SDS011;11418;48.118;9.992;2022-09-30T03:14:33;45.13;;;8.18;;
22502;SDS011;11418;48.118;9.992;2022-09-30T03:23:13;28.98;;;6.40;;
22502;SDS011;11418;48.118;9.992;2022-09-30T03:27:50;18.85;;;6.22;;
22502;SDS011;11418;48.118;9.992;2022-09-30T03:36:20;125.20;;;8.43;;
22502;SDS011;11418;48.118;9.992;2022-09-30T03:40:42;81.00;;;7.43;;
22502;SDS011;11418;48.118;9.992;2022-09-30T03:45:01;65.35;;;7.35;;
22502;SDS011;11418;48.118;9.992;2022-09-30T03:49:12;88.38;;;7.43;;
22502;SDS011;11418;48.118;9.992;2022-09-30T03:53:16;51.67;;;6.60;;
22502;SDS011;11418;48.118;9.992;2022-09-30T03:57:16;86.85;;;7.55;;
22502;SDS011;11418;48.118;9.992;2022-09-30T04:01:17;64.65;;;7.28;;
22502;SDS011;11418;48.118;9.992;2022-09-30T04:05:22;95.00;;;7.97;;
22502;SDS011;11418;48.118;9.992;2022-09-30T04:09:22;90.05;;;7.95;;
22502;SDS011;11418;48.118;9.992;2022-09-30T04:13:23;62.40;;;6.38;;
22502;SDS011;11418;48.118;9.992;2022-09-30T04:17:23;78.18;;;7.57;;
22502;SDS011;11418;48.118;9.992;2022-09-30T04:21:24;118.70;;;8.57;;
22502;SDS011;11418;48.118;9.992;2022-09-30T04:25:27;45.08;;;6.85;;
22502;SDS011;11418;48.118;9.992;2022-09-30T04:29:28;29.30;;;6.60;;
22502;SDS011;11418;48.118;9.992;2022-09-30T04:33:29;40.40;;;7.07;;
22502;SDS011;11418;48.118;9.992;2022-09-30T04:37:30;53.95;;;7.85;;
22502;SDS011;11418;48.118;9.992;2022-09-30T04:41:31;43.25;;;6.85;;
22502;SDS011;11418;48.118;9.992;2022-09-30T04:45:33;77.70;;;7.50;;
22502;SDS011;11418;48.118;9.992;2022-09-30T04:49:33;40.13;;;6.85;;
22502;SDS011;11418;48.118;9.992;2022-09-30T04:53:34;65.50;;;8.18;;
22502;SDS011;11418;48.118;9.992;2022-09-30T04:57:34;79.05;;;7.57;;
22502;SDS011;11418;48.118;9.992;2022-09-30T05:01:35;69.13;;;7.57;;
22502;SDS011;11418;48.118;9.992;2022-09-30T05:05:36;150.60;;;8.82;;
22502;SDS011;11418;48.118;9.992;2022-09-30T05:09:37;91.57;;;7.97;;
22502;SDS011;11418;48.118;9.992;2022-09-30T05:13:38;65.53;;;7.57;;
22502;SDS011;11418;48.118;9.992;2022-09-30T05:17:40;74.35;;;6.70;;
22502;SDS011;11418;48.118;9.992;2022-09-30T05:21:41;41.25;;;6.28;;
22502;SDS011;11418;48.118;9.992;2022-09-30T05:25:44;47.33;;;7.03;;
22502;SDS011;11418;48.118;9.992;2022-09-30T05:29:45;57.08;;;6.80;;
22502;SDS011;11418;48.118;9.992;2022-09-30T05:33:46;61.83;;;6.60;;
22502;SDS011;11418;48.118;9.992;2022-09-30T05:37:46;132.07;;;8.00;;
22502;SDS011;11418;48.118;9.992;2022-09-30T05:41:47;84.20;;;6.32;;
22502;SDS011;11418;48.118;9.992;2022-09-30T05:45:54;53.78;;;5.18;;
22502;SDS011;11418;48.118;9.992;2022-09-30T05:49:55;86.88;;;6.50;;
22502;SDS011;11418;48.118;9.992;2022-09-30T05:53:56;76.07;;;5.45;;
22502;SDS011;11418;48.118;9.992;2022-09-30T05:57:56;170.68;;;7.85;;
22502;SDS011;11418;48.118;9.992;2022-09-30T06:01:57;184.52;;;8.50;;
22502;SDS011;11418;48.118;9.992;2022-09-30T06:05:57;87.55;;;7.32;;
22502;SDS011;11418;48.118;9.992;2022-09-30T06:09:58;86.20;;;7.32;;
22502;SDS011;11418;48.118;9.992;2022-09-30T06:13:59;56.30;;;6.25;;
22502;SDS011;11418;48.118;9.992;2022-09-30T06:17:59;82.40;;;6.60;;
22502;SDS011;11418;48.118;9.992;2022-09-30T06:22:00;53.88;;;6.00;;
22502;SDS011;11418;48.118;9.992;2022-09-30T06:26:01;37.55;;;5.10;;
22502;SDS011;11418;48.118;9.992;2022-09-30T06:30:04;36.67;;;4.32;;
22502;SDS011;11418;48.118;9.992;2022-09-30T06:34:05;69.28;;;5.90;;
22502;SDS011;11418;48.118;9.992;2022-09-30T06:38:05;50.33;;;3.88;;
22502;SDS011;11418;48.118;9.992;2022-09-30T06:42:06;30.25;;;5.18;;
22502;SDS011;11418;48.118;9.992;2022-09-30T06:46:07;58.83;;;4.63;;
22502;SDS011;11418;48.118;9.992;2022-09-30T06:50:08;41.63;;;4.35;;
22502;SDS011;11418;48.118;9.992;2022-09-30T06:54:09;38.67;;;4.13;;
22502;SDS011;11418;48.118;9.992;2022-09-30T06:58:12;99.57;;;5.93;;
22502;SDS011;11418;48.118;9.992;2022-09-30T07:02:14;25.80;;;4.28;;
22502;SDS011;11418;48.118;9.992;2022-09-30T07:06:15;45.80;;;4.97;;
22502;SDS011;11418;48.118;9.992;2022-09-30T07:10:16;65.95;;;6.00;;
22502;SDS011;11418;48.118;9.992;2022-09-30T07:14:16;100.43;;;6.75;;
22502;SDS011;11418;48.118;9.992;2022-09-30T07:18:17;18.00;;;4.95;;
22502;SDS011;11418;48.118;9.992;2022-09-30T07:22:19;47.63;;;5.32;;
22502;SDS011;11418;48.118;9.992;2022-09-30T07:26:27;29.73;;;3.65;;
22502;SDS011;11418;48.118;9.992;2022-09-30T07:30:27;70.78;;;5.18;;
22502;SDS011;11418;48.118;9.992;2022-09-30T07:34:30;20.58;;;6.30;;
22502;SDS011;11418;48.118;9.992;2022-09-30T07:38:30;54.85;;;5.03;;
22502;SDS011;11418;48.118;9.992;2022-09-30T07:42:31;24.73;;;4.05;;
22502;SDS011;11418;48.118;9.992;2022-09-30T07:46:33;18.73;;;4.45;;
22502;SDS011;11418;48.118;9.992;2022-09-30T07:50:35;20.80;;;5.00;;
22502;SDS011;11418;48.118;9.992;2022-09-30T07:54:35;19.35;;;4.60;;
22502;SDS011;11418;48.118;9.992;2022-09-30T07:58:36;23.65;;;3.97;;
22502;SDS011;11418;48.118;9.992;2022-09-30T08:02:37;17.75;;;4.43;;
22502;SDS011;11418;48.118;9.992;2022-09-30T08:06:39;14.75;;;4.25;;
22502;SDS011;11418;48.118;9.992;2022-09-30T08:10:45;12.70;;;4.43;;
22502;SDS011;11418;48.118;9.992;2022-09-30T08:14:45;5.75;;;4.47;;
22502;SDS011;11418;48.118;9.992;2022-09-30T08:18:46;9.95;;;4.63;;
22502;SDS011;11418;48.118;9.992;2022-09-30T08:22:50;5.78;;;4.43;;
22502;SDS011;11418;48.118;9.992;2022-09-30T08:26:52;6.47;;;4.85;;
22502;SDS011;11418;48.118;9.992;2022-09-30T08:30:53;5.00;;;3.90;;
22502;SDS011;11418;48.118;9.992;2022-09-30T08:34:53;6.90;;;4.30;;
22502;SDS011;11418;48.118;9.992;2022-09-30T08:38:54;5.35;;;4.07;;
22502;SDS011;11418;48.118;9.992;2022-09-30T08:43:08;5.72;;;4.38;;
22502;SDS011;11418;48.118;9.992;2022-09-30T08:51:43;6.03;;;4.65;;
22502;SDS011;11418;48.118;9.992;2022-09-30T08:55:46;7.13;;;5.20;;
22502;SDS011;11418;48.118;9.992;2022-09-30T08:59:47;7.68;;;5.60;;
22502;SDS011;11418;48.118;9.992;2022-09-30T09:03:53;6.93;;;4.55;;
22502;SDS011;11418;48.118;9.992;2022-09-30T09:08:06;6.15;;;4.68;;
22502;SDS011;11418;48.118;9.992;2022-09-30T09:13:12;6.50;;;4.72;;
22502;SDS011;11418;48.118;9.992;2022-09-30T09:17:23;7.35;;;5.45;;
22502;SDS011;11418;48.118;9.992;2022-09-30T09:25:52;6.43;;;4.90;;
22502;SDS011;11418;48.118;9.992;2022-09-30T09:34:08;6.93;;;5.18;;
22502;SDS011;11418;48.118;9.992;2022-09-30T09:46:45;6.72;;;4.95;;
22502;SDS011;11418;48.118;9.992;2022-09-30T09:50:51;6.88;;;5.05;;
22502;SDS011;11418;48.118;9.992;2022-09-30T09:55:04;5.43;;;4.53;;
22502;SDS011;11418;48.118;9.992;2022-09-30T09:59:13;5.90;;;4.88;;
22502;SDS011;11418;48.118;9.992;2022-09-30T10:03:18;6.47;;;4.40;;
22502;SDS011;11418;48.118;9.992;2022-09-30T10:07:22;7.70;;;4.70;;
22502;SDS011;11418;48.118;9.992;2022-09-30T10:11:24;8.80;;;5.30;;
22502;SDS011;11418;48.118;9.992;2022-09-30T10:15:26;7.53;;;5.47;;
22502;SDS011;11418;48.118;9.992;2022-09-30T10:19:27;5.78;;;4.70;;
22502;SDS011;11418;48.118;9.992;2022-09-30T10:23:39;8.27;;;5.97;;
22502;SDS011;11418;48.118;9.992;2022-09-30T10:27:46;7.93;;;4.63;;
22502;SDS011;11418;48.118;9.992;2022-09-30T10:31:49;8.52;;;6.22;;
22502;SDS011;11418;48.118;9.992;2022-09-30T10:35:52;8.32;;;5.88;;
22502;SDS011;11418;48.118;9.992;2022-09-30T10:39:57;7.95;;;6.22;;
22502;SDS011;11418;48.118;9.992;2022-09-30T10:44:02;7.07;;;5.53;;
22502;SDS011;11418;48.118;9.992;2022-09-30T10:48:06;8.07;;;5.78;;
22502;SDS011;11418;48.118;9.992;2022-09-30T10:52:18;7.53;;;5.68;;
22502;SDS011;11418;48.118;9.992;2022-09-30T10:56:33;9.68;;;6.75;;
22502;SDS011;11418;48.118;9.992;2022-09-30T11:00:36;7.93;;;6.07;;
22502;SDS011;11418;48.118;9.992;2022-09-30T11:04:38;8.48;;;6.15;;
22502;SDS011;11418;48.118;9.992;2022-09-30T11:08:48;9.15;;;6.82;;
22502;SDS011;11418;48.118;9.992;2022-09-30T11:25:43;7.80;;;6.20;;
22502;SDS011;11418;48.118;9.992;2022-09-30T11:30:11;9.35;;;6.95;;
22502;SDS011;11418;48.118;9.992;2022-09-30T11:38:45;9.13;;;6.37;;
22502;SDS011;11418;48.118;9.992;2022-09-30T11:47:44;9.93;;;7.53;;
22502;SDS011;11418;48.118;9.992;2022-09-30T11:56:45;9.27;;;6.65;;
22502;SDS011;11418;48.118;9.992;2022-09-30T12:01:00;9.68;;;7.47;;
22502;SDS011;11418;48.118;9.992;2022-09-30T12:05:47;9.63;;;7.45;;
22502;SDS011;11418;48.118;9.992;2022-09-30T12:09:47;9.68;;;7.18;;
22502;SDS011;11418;48.118;9.992;2022-09-30T12:13:56;10.50;;;7.30;;
22502;SDS011;11418;48.118;9.992;2022-09-30T12:18:02;10.23;;;7.63;;
22502;SDS011;11418;48.118;9.992;2022-09-30T12:22:43;11.50;;;7.95;;
22502;SDS011;11418;48.118;9.992;2022-09-30T12:26:40;9.57;;;7.10;;
22502;SDS011;11418;48.118;9.992;2022-09-30T12:30:40;11.60;;;7.07;;
22502;SDS011;11418;48.118;9.992;2022-09-30T12:48:16;11.32;;;7.13;;
22502;SDS011;11418;48.118;9.992;2022-09-30T12:52:19;8.52;;;7.00;;
22502;SDS011;11418;48.118;9.992;2022-09-30T12:56:21;9.45;;;7.03;;
22502;SDS011;11418;48.118;9.992;2022-09-30T13:00:28;10.07;;;7.20;;
22502;SDS011;11418;48.118;9.992;2022-09-30T13:17:23;11.77;;;7.97;;
22502;SDS011;11418;48.118;9.992;2022-09-30T13:21:25;8.70;;;6.63;;
22502;SDS011;11418;48.118;9.992;2022-09-30T13:25:26;11.68;;;6.65;;
22502;SDS011;11418;48.118;9.992;2022-09-30T13:29:46;9.13;;;6.65;;
22502;SDS011;11418;48.118;9.992;2022-09-30T13:42:38;9.10;;;6.80;;
22502;SDS011;11418;48.118;9.992;2022-09-30T13:46:50;9.25;;;6.88;;
22502;SDS011;11418;48.118;9.992;2022-09-30T13:50:56;7.63;;;6.27;;
22502;SDS011;11418;48.118;9.992;2022-09-30T13:55:01;7.72;;;6.13;;
22502;SDS011;11418;48.118;9.992;2022-09-30T13:59:13;8.52;;;6.32;;
22502;SDS011;11418;48.118;9.992;2022-09-30T14:03:36;8.65;;;6.65;;
22502;SDS011;11418;48.118;9.992;2022-09-30T14:13:03;8.18;;;6.80;;
22502;SDS011;11418;48.118;9.992;2022-09-30T14:21:47;6.78;;;5.60;;
22502;SDS011;11418;48.118;9.992;2022-09-30T14:25:56;7.30;;;5.47;;
22502;SDS011;11418;48.118;9.992;2022-09-30T14:30:13;6.28;;;5.63;;
22502;SDS011;11418;48.118;9.992;2022-09-30T14:34:19;7.78;;;5.70;;
22502;SDS011;11418;48.118;9.992;2022-09-30T14:38:25;7.82;;;5.32;;
22502;SDS011;11418;48.118;9.992;2022-09-30T14:42:33;7.72;;;5.80;;
22502;SDS011;11418;48.118;9.992;2022-09-30T14:46:37;7.63;;;5.75;;
22502;SDS011;11418;48.118;9.992;2022-09-30T14:55:21;7.57;;;5.50;;
22502;SDS011;11418;48.118;9.992;2022-09-30T14:59:34;8.27;;;6.38;;
22502;SDS011;11418;48.118;9.992;2022-09-30T15:07:41;8.30;;;6.28;;
22502;SDS011;11418;48.118;9.992;2022-09-30T15:11:42;7.63;;;5.90;;
22502;SDS011;11418;48.118;9.992;2022-09-30T15:15:43;8.77;;;7.00;;
22502;SDS011;11418;48.118;9.992;2022-09-30T15:19:44;8.07;;;6.13;;
22502;SDS011;11418;48.118;9.992;2022-09-30T15:23:46;8.75;;;6.15;;
22502;SDS011;11418;48.118;9.992;2022-09-30T15:27:51;7.75;;;6.30;;
22502;SDS011;11418;48.118;9.992;2022-09-30T15:36:19;8.45;;;7.20;;
22502;SDS011;11418;48.118;9.992;2022-09-30T15:40:21;9.38;;;6.97;;
22502;SDS011;11418;48.118;9.992;2022-09-30T15:44:41;8.85;;;6.85;;
22502;SDS011;11418;48.118;9.992;2022-09-30T15:48:42;9.07;;;7.40;;
22502;SDS011;11418;48.118;9.992;2022-09-30T15:52:43;10.93;;;7.90;;
22502;SDS011;11418;48.118;9.992;2022-09-30T15:56:44;10.50;;;7.88;;
22502;SDS011;11418;48.118;9.992;2022-09-30T16:00:45;11.90;;;8.52;;
22502;SDS011;11418;48.118;9.992;2022-09-30T16:04:49;12.25;;;9.13;;
22502;SDS011;11418;48.118;9.992;2022-09-30T16:08:52;10.27;;;7.72;;
22502;SDS011;11418;48.118;9.992;2022-09-30T16:13:01;9.75;;;7.60;;
22502;SDS011;11418;48.118;9.992;2022-09-30T16:17:03;11.02;;;8.35;;
22502;SDS011;11418;48.118;9.992;2022-09-30T16:21:05;10.00;;;8.20;;
22502;SDS011;11418;48.118;9.992;2022-09-30T16:25:19;12.50;;;9.32;;
22502;SDS011;11418;48.118;9.992;2022-09-30T16:29:32;14.30;;;10.57;;
22502;SDS011;11418;48.118;9.992;2022-09-30T16:33:34;14.15;;;9.77;;
22502;SDS011;11418;48.118;9.992;2022-09-30T16:37:38;15.05;;;10.10;;
22502;SDS011;11418;48.118;9.992;2022-09-30T16:41:42;13.02;;;9.50;;
22502;SDS011;11418;48.118;9.992;2022-09-30T16:45:43;16.52;;;10.63;;
22502;SDS011;11418;48.118;9.992;2022-09-30T16:49:44;15.43;;;10.18;;
22502;SDS011;11418;48.118;9.992;2022-09-30T16:53:46;14.57;;;10.57;;
22502;SDS011;11418;48.118;9.992;2022-09-30T16:57:49;14.90;;;10.50;;
22502;SDS011;11418;48.118;9.992;2022-09-30T17:01:50;18.83;;;11.48;;
22502;SDS011;11418;48.118;9.992;2022-09-30T17:05:51;15.23;;;11.10;;
22502;SDS011;11418;48.118;9.992;2022-09-30T17:09:52;15.90;;;10.98;;
22502;SDS011;11418;48.118;9.992;2022-09-30T17:13:52;17.92;;;11.18;;
22502;SDS011;11418;48.118;9.992;2022-09-30T17:17:53;18.90;;;11.80;;
22502;SDS011;11418;48.118;9.992;2022-09-30T17:21:54;18.63;;;11.88;;
22502;SDS011;11418;48.118;9.992;2022-09-30T17:25:54;20.70;;;13.60;;
22502;SDS011;11418;48.118;9.992;2022-09-30T17:29:55;20.73;;;12.77;;
22502;SDS011;11418;48.118;9.992;2022-09-30T17:33:55;21.00;;;13.65;;
22502;SDS011;11418;48.118;9.992;2022-09-30T17:37:56;23.02;;;13.93;;
22502;SDS011;11418;48.118;9.992;2022-09-30T17:41:57;23.10;;;15.43;;
22502;SDS011;11418;48.118;9.992;2022-09-30T17:46:16;31.40;;;19.40;;
22502;SDS011;11418;48.118;9.992;2022-09-30T17:50:20;37.05;;;22.90;;
22502;SDS011;11418;48.118;9.992;2022-09-30T17:54:21;26.05;;;17.08;;
22502;SDS011;11418;48.118;9.992;2022-09-30T17:58:21;40.72;;;24.20;;
22502;SDS011;11418;48.118;9.992;2022-09-30T18:02:22;24.73;;;14.60;;
22502;SDS011;11418;48.118;9.992;2022-09-30T18:06:24;24.38;;;13.82;;
22502;SDS011;11418;48.118;9.992;2022-09-30T18:10:26;22.40;;;12.82;;
22502;SDS011;11418;48.118;9.992;2022-09-30T18:14:27;23.05;;;12.43;;
22502;SDS011;11418;48.118;9.992;2022-09-30T18:18:34;17.00;;;10.65;;
22502;SDS011;11418;48.118;9.992;2022-09-30T18:22:34;19.45;;;10.82;;
22502;SDS011;11418;48.118;9.992;2022-09-30T18:26:35;22.55;;;12.35;;
22502;SDS011;11418;48.118;9.992;2022-09-30T18:30:36;28.05;;;13.80;;
22502;SDS011;11418;48.118;9.992;2022-09-30T18:34:38;28.23;;;14.88;;
22502;SDS011;11418;48.118;9.992;2022-09-30T18:38:38;25.58;;;13.60;;
22502;SDS011;11418;48.118;9.992;2022-09-30T18:42:39;24.35;;;13.00;;
22502;SDS011;11418;48.118;9.992;2022-09-30T18:46:39;21.73;;;12.32;;
22502;SDS011;11418;48.118;9.992;2022-09-30T18:50:41;24.17;;;11.93;;
22502;SDS011;11418;48.118;9.992;2022-09-30T18:54:42;25.17;;;12.73;;
22502;SDS011;11418;48.118;9.992;2022-09-30T18:58:43;21.23;;;11.90;;
22502;SDS011;11418;48.118;9.992;2022-09-30T19:02:43;25.27;;;12.55;;
22502;SDS011;11418;48.118;9.992;2022-09-30T19:06:44;25.50;;;13.35;;
22502;SDS011;11418;48.118;9.992;2022-09-30T19:10:46;31.58;;;16.40;;
22502;SDS011;11418;48.118;9.992;2022-09-30T19:14:47;30.17;;;14.20;;
22502;SDS011;11418;48.118;9.992;2022-09-30T19:18:47;34.72;;;15.23;;
22502;SDS011;11418;48.118;9.992;2022-09-30T19:22:48;31.20;;;15.48;;
22502;SDS011;11418;48.118;9.992;2022-09-30T19:26:50;23.77;;;12.98;;
22502;SDS011;11418;48.118;9.992;2022-09-30T19:30:51;22.48;;;12.57;;
22502;SDS011;11418;48.118;9.992;2022-09-30T19:34:52;25.25;;;13.43;;
22502;SDS011;11418;48.118;9.992;2022-09-30T19:38:54;27.58;;;14.68;;
22502;SDS011;11418;48.118;9.992;2022-09-30T19:42:58;26.83;;;13.55;;
22502;SDS011;11418;48.118;9.992;2022-09-30T19:46:59;29.75;;;14.63;;
22502;SDS011;11418;48.118;9.992;2022-09-30T19:51:00;26.33;;;14.25;;
22502;SDS011;11418;48.118;9.992;2022-09-30T19:55:02;25.35;;;14.30;;
22502;SDS011;11418;48.118;9.992;2022-09-30T19:59:03;26.38;;;13.80;;
22502;SDS011;11418;48.118;9.992;2022-09-30T20:03:04;26.98;;;14.38;;
22502;SDS011;11418;48.118;9.992;2022-09-30T20:07:04;24.65;;;13.60;;
22502;SDS011;11418;48.118;9.992;2022-09-30T20:15:10;28.02;;;14.55;;
22502;SDS011;11418;48.118;9.992;2022-09-30T20:19:29;26.25;;;14.05;;
22502;SDS011;11418;48.118;9.992;2022-09-30T20:23:30;27.73;;;13.77;;
22502;SDS011;11418;48.118;9.992;2022-09-30T20:27:35;26.45;;;14.55;;
22502;SDS011;11418;48.118;9.992;2022-09-30T20:31:39;32.33;;;15.20;;
22502;SDS011;11418;48.118;9.992;2022-09-30T20:35:41;30.65;;;16.08;;
22502;SDS011;11418;48.118;9.992;2022-09-30T20:39:41;35.83;;;15.95;;
22502;SDS011;11418;48.118;9.992;2022-09-30T20:43:42;35.35;;;15.50;;
22502;SDS011;11418;48.118;9.992;2022-09-30T20:47:44;29.80;;;14.52;;
22502;SDS011;11418;48.118;9.992;2022-09-30T20:51:45;30.20;;;14.55;;
22502;SDS011;11418;48.118;9.992;2022-09-30T20:55:46;31.08;;;15.68;;
22502;SDS011;11418;48.118;9.992;2022-09-30T20:59:47;37.03;;;16.13;;
22502;SDS011;11418;48.118;9.992;2022-09-30T21:03:48;42.75;;;16.70;;
22502;SDS011;11418;48.118;9.992;2022-09-30T21:07:51;48.17;;;14.95;;
22502;SDS011;11418;48.118;9.992;2022-09-30T21:11:52;30.65;;;12.25;;
22502;SDS011;11418;48.118;9.992;2022-09-30T21:15:59;18.83;;;10.88;;
22502;SDS011;11418;48.118;9.992;2022-09-30T21:20:01;27.88;;;12.05;;
22502;SDS011;11418;48.118;9.992;2022-09-30T21:24:02;20.83;;;11.32;;
22502;SDS011;11418;48.118;9.992;2022-09-30T21:28:02;44.75;;;12.73;;
22502;SDS011;11418;48.118;9.992;2022-09-30T21:32:03;49.28;;;10.77;;
22502;SDS011;11418;48.118;9.992;2022-09-30T21:36:04;20.75;;;12.05;;
22502;SDS011;11418;48.118;9.992;2022-09-30T21:40:05;24.60;;;12.02;;
22502;SDS011;11418;48.118;9.992;2022-09-30T21:44:06;24.40;;;12.98;;
22502;SDS011;11418;48.118;9.992;2022-09-30T21:48:07;26.77;;;13.45;;
22502;SDS011;11418;48.118;9.992;2022-09-30T21:52:11;32.83;;;14.63;;
22502;SDS011;11418;48.118;9.992;2022-09-30T21:56:11;31.02;;;14.43;;
22502;SDS011;11418;48.118;9.992;2022-09-30T22:00:12;28.92;;;14.30;;
22502;SDS011;11418;48.118;9.992;2022-09-30T22:04:13;32.00;;;15.98;;
22502;SDS011;11418;48.118;9.992;2022-09-30T22:08:13;39.35;;;15.60;;
22502;SDS011;11418;48.118;9.992;2022-09-30T22:12:14;30.75;;;13.15;;
22502;SDS011;11418;48.118;9.992;2022-09-30T22:16:14;37.85;;;14.18;;
22502;SDS011;11418;48.118;9.992;2022-09-30T22:20:15;36.17;;;14.95;;
22502;SDS011;11418;48.118;9.992;2022-09-30T22:24:16;33.95;;;14.52;;
22502;SDS011;11418;48.118;9.992;2022-09-30T22:28:16;36.60;;;15.02;;
22502;SDS011;11418;48.118;9.992;2022-09-30T22:32:17;35.13;;;14.45;;
22502;SDS011;11418;48.118;9.992;2022-09-30T22:36:18;39.28;;;15.07;;
22502;SDS011;11418;48.118;9.992;2022-09-30T22:40:37;134.75;;;13.88;;
22502;SDS011;11418;48.118;9.992;2022-09-30T22:44:38;100.57;;;14.20;;
22502;SDS011;11418;48.118;9.992;2022-09-30T22:48:38;39.70;;;12.95;;
22502;SDS011;11418;48.118;9.992;2022-09-30T22:52:39;33.72;;;14.98;;
22502;SDS011;11418;48.118;9.992;2022-09-30T22:56:39;37.03;;;15.48;;
22502;SDS011;11418;48.118;9.992;2022-09-30T23:00:40;52.05;;;19.58;;
22502;SDS011;11418;48.118;9.992;2022-09-30T23:04:49;45.85;;;18.30;;
22502;SDS011;11418;48.118;9.992;2022-09-30T23:08:50;47.35;;;17.75;;
22502;SDS011;11418;48.118;9.992;2022-09-30T23:12:52;44.55;;;17.25;;
22502;SDS011;11418;48.118;9.992;2022-09-30T23:16:52;37.90;;;16.98;;
22502;SDS011;11418;48.118;9.992;2022-09-30T23:20:57;40.03;;;16.20;;
22502;SDS011;11418;48.118;9.992;2022-09-30T23:25:07;39.92;;;15.98;;
22502;SDS011;11418;48.118;9.992;2022-09-30T23:29:10;41.80;;;15.55;;
22502;SDS011;11418;48.118;9.992;2022-09-30T23:33:11;34.50;;;15.68;;
22502;SDS011;11418;48.118;9.992;2022-09-30T23:37:12;31.30;;;14.18;;
22502;SDS011;11418;48.118;9.992;2022-09-30T23:41:12;28.33;;;13.30;;
22502;SDS011;11418;48.118;9.992;2022-09-30T23:45:13;28.38;;;13.65;;
22502;SDS011;11418;48.118;9.992;2022-09-30T23:49:13;25.05;;;13.32;;
22502;SDS011;11418;48.118;9.992;2022-09-30T23:53:14;23.75;;;12.55;;
22502;SDS011;11418;48.118;9.992;2022-09-30T23:57:15;25.20;;;13.10;;
